createdAt,value
2023-05-10T00:00:46.296Z,2.2634
2023-05-10T00:01:47.490Z,2.4826
2023-05-10T00:02:49.952Z,1.9586
2023-05-10T00:03:52.224Z,2.3446
2023-05-10T00:04:54.420Z,1.9896
2023-05-10T00:05:56.793Z,1.6187
2023-05-10T00:06:59.597Z,2.2473
2023-05-10T00:08:01.499Z,1.6331
2023-05-10T00:09:03.820Z,1.6280
2023-05-10T00:10:06.089Z,1.8968
2023-05-10T00:11:09.711Z,2.5799
2023-05-10T00:12:11.045Z,1.8730
2023-05-10T00:13:13.570Z,2.8107
2023-05-10T00:14:17.253Z,2.2353
2023-05-10T00:15:17.855Z,3.5431
2023-05-10T00:16:20.106Z,2.6325
2023-05-10T00:17:22.412Z,2.2774
2023-05-10T00:18:24.800Z,1.7224
2023-05-10T00:19:27.666Z,1.9604
2023-05-10T00:20:30.136Z,2.5537
2023-05-10T00:21:31.810Z,3.0461
2023-05-10T00:22:36.195Z,2.1192
2023-05-10T00:23:36.628Z,2.6874
2023-05-10T00:24:39.966Z,1.8721
2023-05-10T00:25:41.967Z,2.3102
2023-05-10T00:26:44.138Z,2.6798
2023-05-10T00:27:46.690Z,2.0562
2023-05-10T00:28:48.322Z,2.6341
2023-05-10T00:29:50.438Z,3.4865
2023-05-10T00:30:54.914Z,3.1951
2023-05-10T00:31:56.611Z,2.5683
2023-05-10T00:32:57.652Z,2.8539
2023-05-10T00:33:59.963Z,3.1239
2023-05-10T00:35:04.432Z,2.4635
2023-05-10T00:36:05.342Z,3.3784
2023-05-10T00:37:07.565Z,2.2333
2023-05-10T00:38:09.678Z,2.6664
2023-05-10T00:39:11.802Z,2.5411
2023-05-10T00:40:14.420Z,4.7305
2023-05-10T00:41:16.149Z,4.6365
2023-05-10T00:42:18.905Z,3.4285
2023-05-10T00:43:21.145Z,2.5928
2023-05-10T00:44:23.122Z,4.0237
2023-05-10T00:45:26.871Z,3.1056
2023-05-10T00:46:28.222Z,2.3833
2023-05-10T00:47:30.965Z,2.3348
2023-05-10T00:48:33.658Z,2.1671
2023-05-10T00:49:35.036Z,2.6784
2023-05-10T00:50:37.152Z,2.9922
2023-05-10T00:51:39.642Z,2.5412
2023-05-10T00:52:42.715Z,3.7350
2023-05-10T00:53:44.580Z,2.2846
2023-05-10T00:54:46.478Z,2.3267
2023-05-10T00:55:48.829Z,2.2758
2023-05-10T00:56:51.391Z,2.3761
2023-05-10T00:57:54.598Z,2.8755
2023-05-10T00:58:56.640Z,2.9376
2023-05-10T00:59:58.149Z,2.8197
2023-05-10T01:01:01.205Z,3.1136
2023-05-10T01:02:02.944Z,2.6869
2023-05-10T01:03:05.390Z,3.2325
2023-05-10T01:04:07.718Z,1.9152
2023-05-10T01:05:10.128Z,3.0106
2023-05-10T01:06:12.954Z,1.9021
2023-05-10T01:07:16.182Z,2.6435
2023-05-10T01:08:17.959Z,4.5194
2023-05-10T01:09:19.238Z,2.8875
2023-05-10T01:10:21.610Z,2.7034
2023-05-10T01:11:23.882Z,2.1672
2023-05-10T01:12:26.419Z,2.9524
2023-05-10T01:13:29.109Z,2.6564
2023-05-10T01:14:31.319Z,2.1756
2023-05-10T01:15:33.219Z,3.0215
2023-05-10T01:16:36.691Z,3.4763
2023-05-10T01:17:39.902Z,2.9896
2023-05-10T01:18:40.797Z,3.3457
2023-05-10T01:19:42.656Z,3.7032
2023-05-10T01:20:44.872Z,2.4303
2023-05-10T01:21:48.185Z,4.0267
2023-05-10T01:22:50.151Z,2.6532
2023-05-10T01:23:53.160Z,2.9145
2023-05-10T01:24:54.569Z,3.0099
2023-05-10T01:25:56.593Z,3.3064
2023-05-10T01:26:58.904Z,3.3645
2023-05-10T01:28:01.269Z,3.4411
2023-05-10T01:29:04.385Z,4.0429
2023-05-10T01:30:21.776Z,2.3212
2023-05-10T01:31:08.821Z,2.7510
2023-05-10T01:32:10.718Z,3.0675
2023-05-10T01:33:13.396Z,5.1355
2023-05-10T01:34:15.622Z,3.0926
2023-05-10T01:35:17.804Z,2.7672
2023-05-10T01:36:20.157Z,3.9750
2023-05-10T01:37:22.607Z,3.4979
2023-05-10T01:38:24.768Z,2.8682
2023-05-10T01:39:27.170Z,3.0950
2023-05-10T01:40:29.694Z,3.2345
2023-05-10T01:41:31.665Z,3.5660
2023-05-10T01:42:34.445Z,3.4751
2023-05-10T01:43:36.508Z,3.4502
2023-05-10T01:44:38.973Z,3.6682
2023-05-10T01:45:41.112Z,4.0478
2023-05-10T01:46:43.451Z,3.0193
2023-05-10T01:47:46.029Z,3.9892
2023-05-10T01:48:48.019Z,2.6952
2023-05-10T01:49:50.453Z,3.0791
2023-05-10T01:50:52.865Z,3.2629
2023-05-10T01:51:55.018Z,3.8616
2023-05-10T01:52:57.490Z,2.7009
2023-05-10T01:53:59.879Z,2.0832
2023-05-10T01:55:02.114Z,2.3307
2023-05-10T01:56:04.427Z,2.8261
2023-05-10T01:57:07.163Z,3.2352
2023-05-10T01:58:09.109Z,4.2121
2023-05-10T01:59:12.134Z,3.5624
2023-05-10T02:00:14.702Z,3.1403
2023-05-10T02:01:16.387Z,3.8709
2023-05-10T02:02:18.519Z,2.7934
2023-05-10T02:03:20.798Z,3.1639
2023-05-10T02:04:23.075Z,3.0371
2023-05-10T02:05:25.408Z,3.4455
2023-05-10T02:06:27.765Z,2.9220
2023-05-10T02:07:31.079Z,2.8351
2023-05-10T02:08:32.426Z,2.9669
2023-05-10T02:09:34.851Z,3.9136
2023-05-10T02:10:37.071Z,3.2351
2023-05-10T02:11:39.618Z,3.4364
2023-05-10T02:12:41.918Z,4.2330
2023-05-10T02:13:44.116Z,2.9031
2023-05-10T02:14:46.382Z,2.8841
2023-05-10T02:15:48.692Z,3.3124
2023-05-10T02:16:51.231Z,3.0236
2023-05-10T02:17:53.382Z,3.5346
2023-05-10T02:18:56.167Z,3.4757
2023-05-10T02:19:58.066Z,3.7285
2023-05-10T02:21:00.356Z,3.3615
2023-05-10T02:22:02.999Z,3.2509
2023-05-10T02:23:05.180Z,4.3852
2023-05-10T02:24:08.302Z,3.8917
2023-05-10T02:25:10.315Z,4.0278
2023-05-10T02:26:12.077Z,3.4860
2023-05-10T02:27:14.511Z,3.7551
2023-05-10T02:28:16.922Z,2.5643
2023-05-10T02:29:19.236Z,3.5272
2023-05-10T02:30:22.022Z,3.0159
2023-05-10T02:31:23.764Z,3.3826
2023-05-10T02:32:26.064Z,3.7051
2023-05-10T02:33:29.124Z,2.6444
2023-05-10T02:34:30.947Z,3.2817
2023-05-10T02:35:33.039Z,3.1603
2023-05-10T02:36:35.825Z,3.0025
2023-05-10T02:37:37.868Z,2.6562
2023-05-10T02:38:40.240Z,3.7221
2023-05-10T02:39:42.673Z,3.9317
2023-05-10T02:40:44.772Z,2.7419
2023-05-10T02:41:47.039Z,3.9292
2023-05-10T02:42:49.973Z,3.2257
2023-05-10T02:43:51.770Z,4.3157
2023-05-10T02:44:54.487Z,4.3427
2023-05-10T02:45:56.406Z,3.8282
2023-05-10T02:46:58.708Z,3.6638
2023-05-10T02:48:01.731Z,3.3584
2023-05-10T02:49:03.695Z,3.7460
2023-05-10T02:50:05.846Z,3.1735
2023-05-10T02:51:08.070Z,4.4585
2023-05-10T02:52:10.609Z,4.0798
2023-05-10T02:53:12.762Z,3.9410
2023-05-10T02:54:15.826Z,4.6148
2023-05-10T02:55:18.239Z,4.4543
2023-05-10T02:56:19.835Z,4.2760
2023-05-10T02:57:22.623Z,4.2731
2023-05-10T02:58:24.672Z,3.8190
2023-05-10T02:59:26.942Z,3.9032
2023-05-10T03:00:29.155Z,3.2944
2023-05-10T03:01:31.581Z,4.5903
2023-05-10T03:02:34.079Z,4.2759
2023-05-10T03:03:36.137Z,3.7082
2023-05-10T03:04:39.229Z,3.3492
2023-05-10T03:05:40.781Z,6.6329
2023-05-10T03:06:43.557Z,5.5670
2023-05-10T03:07:45.448Z,4.2054
2023-05-10T03:08:48.666Z,4.4290
2023-05-10T03:09:50.287Z,4.2137
2023-05-10T03:10:52.854Z,4.4937
2023-05-10T03:11:55.248Z,4.4942
2023-05-10T03:12:57.798Z,5.2479
2023-05-10T03:13:59.596Z,4.8153
2023-05-10T03:15:01.825Z,5.6513
2023-05-10T03:16:04.316Z,5.1654
2023-05-10T03:17:06.444Z,5.6762
2023-05-10T03:18:08.924Z,4.9838
2023-05-10T03:19:11.122Z,5.0843
2023-05-10T03:20:13.509Z,4.8478
2023-05-10T03:21:15.860Z,4.9739
2023-05-10T03:22:18.136Z,4.6683
2023-05-10T03:23:20.459Z,5.3720
2023-05-10T03:24:22.898Z,6.0060
2023-05-10T03:25:25.733Z,5.9808
2023-05-10T03:26:27.619Z,6.3530
2023-05-10T03:27:29.973Z,6.1238
2023-05-10T03:28:32.882Z,6.7330
2023-05-10T03:29:35.551Z,5.5206
2023-05-10T03:30:37.367Z,5.0614
2023-05-10T03:31:40.340Z,5.6593
2023-05-10T03:32:42.155Z,6.0693
2023-05-10T03:33:43.807Z,6.6589
2023-05-10T03:34:47.098Z,6.1307
2023-05-10T03:35:48.483Z,5.5294
2023-05-10T03:36:51.341Z,5.1593
2023-05-10T03:37:53.944Z,6.4779
2023-05-10T03:38:55.797Z,6.3387
2023-05-10T03:39:57.824Z,6.5064
2023-05-10T03:41:00.366Z,5.8063
2023-05-10T03:42:04.184Z,5.9992
2023-05-10T03:43:04.881Z,6.6728
2023-05-10T03:44:08.480Z,5.6640
2023-05-10T03:45:09.514Z,6.0811
2023-05-10T03:46:12.473Z,6.6141
2023-05-10T03:47:14.172Z,6.7925
2023-05-10T03:48:16.553Z,5.7960
2023-05-10T03:49:18.866Z,4.7906
2023-05-10T03:50:21.354Z,4.3209
2023-05-10T03:51:23.514Z,5.5550
2023-05-10T03:52:25.995Z,4.5963
2023-05-10T03:53:28.246Z,6.0410
2023-05-10T03:54:30.537Z,5.3212
2023-05-10T03:55:32.870Z,5.3728
2023-05-10T03:56:35.421Z,5.2029
2023-05-10T03:57:37.722Z,5.2384
2023-05-10T03:58:40.316Z,5.7262
2023-05-10T03:59:42.221Z,5.3715
2023-05-10T04:00:46.202Z,4.8295
2023-05-10T04:01:47.889Z,6.2496
2023-05-10T04:02:49.946Z,6.2524
2023-05-10T04:03:51.701Z,5.2396
2023-05-10T04:04:54.878Z,5.0374
2023-05-10T04:05:56.245Z,6.5475
2023-05-10T04:06:59.647Z,5.9516
2023-05-10T04:08:00.914Z,7.4546
2023-05-10T04:09:04.193Z,7.0329
2023-05-10T04:10:05.589Z,5.2279
2023-05-10T04:11:07.908Z,5.7977
2023-05-10T04:12:11.143Z,7.3081
2023-05-10T04:13:13.542Z,8.8223
2023-05-10T04:14:14.910Z,5.7924
2023-05-10T04:15:17.308Z,6.2607
2023-05-10T04:16:19.679Z,4.8035
2023-05-10T04:17:21.958Z,5.5997
2023-05-10T04:18:24.269Z,5.3898
2023-05-10T04:19:27.583Z,5.0908
2023-05-10T04:20:29.092Z,5.3864
2023-05-10T04:21:31.396Z,6.2820
2023-05-10T04:22:33.588Z,5.4183
2023-05-10T04:23:35.949Z,6.1191
2023-05-10T04:24:38.277Z,5.6284
2023-05-10T04:25:40.594Z,7.1581
2023-05-10T04:26:42.923Z,7.3697
2023-05-10T04:27:45.263Z,7.9272
2023-05-10T04:28:47.684Z,6.5906
2023-05-10T04:29:49.977Z,6.5403
2023-05-10T04:30:52.408Z,6.5937
2023-05-10T04:31:54.780Z,7.3188
2023-05-10T04:32:58.174Z,6.0134
2023-05-10T04:33:59.347Z,6.3594
2023-05-10T04:35:02.664Z,6.4769
2023-05-10T04:36:04.145Z,7.0103
2023-05-10T04:37:06.295Z,8.8209
2023-05-10T04:38:11.568Z,6.2472
2023-05-10T04:39:10.950Z,6.9869
2023-05-10T04:40:13.295Z,4.9327
2023-05-10T04:41:16.074Z,5.1995
2023-05-10T04:42:18.882Z,5.3174
2023-05-10T04:43:20.572Z,5.7519
2023-05-10T04:44:22.631Z,5.3235
2023-05-10T04:45:24.966Z,4.9857
2023-05-10T04:46:27.381Z,4.8002
2023-05-10T04:47:29.622Z,4.6777
2023-05-10T04:48:32.386Z,4.7345
2023-05-10T04:49:34.310Z,5.0126
2023-05-10T04:50:36.578Z,5.7567
2023-05-10T04:51:38.978Z,7.5898
2023-05-10T04:52:41.354Z,6.3909
2023-05-10T04:53:48.586Z,3.9174
2023-05-10T04:54:45.906Z,4.2198
2023-05-10T04:55:48.256Z,5.0355
2023-05-10T04:56:50.566Z,5.4368
2023-05-10T04:57:52.915Z,4.5300
2023-05-10T04:58:55.296Z,5.1158
2023-05-10T04:59:57.582Z,5.4952
2023-05-10T05:00:59.892Z,6.2659
2023-05-10T05:02:02.308Z,6.1705
2023-05-10T05:03:04.606Z,5.7619
2023-05-10T05:04:06.898Z,6.4447
2023-05-10T05:05:09.248Z,6.1759
2023-05-10T05:06:11.601Z,5.0978
2023-05-10T05:07:23.123Z,5.7837
2023-05-10T05:08:16.228Z,6.0666
2023-05-10T05:09:18.565Z,5.7256
2023-05-10T05:10:20.849Z,6.5432
2023-05-10T05:11:23.180Z,7.6966
2023-05-10T05:12:25.534Z,5.7456
2023-05-10T05:13:27.900Z,5.9258
2023-05-10T05:14:30.179Z,6.4282
2023-05-10T05:15:32.550Z,5.0714
2023-05-10T05:16:35.031Z,5.5356
2023-05-10T05:17:37.184Z,5.4660
2023-05-10T05:18:39.526Z,5.6412
2023-05-10T05:19:41.841Z,5.2905
2023-05-10T05:20:44.151Z,4.8168
2023-05-10T05:21:46.518Z,4.9646
2023-05-10T05:22:48.810Z,4.9717
2023-05-10T05:23:51.156Z,6.3702
2023-05-10T05:24:53.480Z,5.4647
2023-05-10T05:25:55.832Z,5.6621
2023-05-10T05:26:58.170Z,5.5198
2023-05-10T05:28:00.541Z,5.6926
2023-05-10T05:29:02.815Z,4.8872
2023-05-10T05:30:05.166Z,5.7439
2023-05-10T05:31:07.585Z,6.3487
2023-05-10T05:32:09.911Z,6.5694
2023-05-10T05:33:12.162Z,5.3289
2023-05-10T05:34:14.624Z,5.9614
2023-05-10T05:35:17.116Z,4.7516
2023-05-10T05:36:19.206Z,5.3483
2023-05-10T05:37:21.548Z,4.3896
2023-05-10T05:38:23.865Z,5.5954
2023-05-10T05:39:26.190Z,5.2641
2023-05-10T05:40:28.533Z,4.6568
2023-05-10T05:41:30.866Z,5.8702
2023-05-10T05:42:33.213Z,4.4665
2023-05-10T05:43:38.028Z,4.3240
2023-05-10T05:44:37.882Z,5.0667
2023-05-10T05:45:40.216Z,5.9429
2023-05-10T05:46:42.577Z,4.8486
2023-05-10T05:47:44.992Z,4.4960
2023-05-10T05:48:47.216Z,4.1254
2023-05-10T05:49:49.808Z,4.6638
2023-05-10T05:50:51.859Z,6.4052
2023-05-10T05:51:54.481Z,7.9941
2023-05-10T05:52:56.558Z,6.0170
2023-05-10T05:53:59.322Z,5.8218
2023-05-10T05:55:01.294Z,6.5617
2023-05-10T05:56:03.515Z,5.7236
2023-05-10T05:57:06.146Z,6.0352
2023-05-10T05:58:08.192Z,5.7569
2023-05-10T05:59:11.141Z,5.5388
2023-05-10T06:00:12.844Z,5.3548
2023-05-10T06:01:15.192Z,5.1727
2023-05-10T06:02:17.585Z,5.5979
2023-05-10T06:03:20.014Z,6.6576
2023-05-10T06:04:22.257Z,5.0654
2023-05-10T06:05:24.527Z,5.8979
2023-05-10T06:06:26.937Z,4.7997
2023-05-10T06:07:29.276Z,6.5264
2023-05-10T06:08:31.765Z,5.8063
2023-05-10T06:09:33.868Z,5.9627
2023-05-10T06:10:36.202Z,6.7862
2023-05-10T06:11:38.676Z,6.8808
2023-05-10T06:12:41.106Z,6.3004
2023-05-10T06:13:43.257Z,6.8596
2023-05-10T06:14:45.614Z,6.5059
2023-05-10T06:15:47.894Z,6.9286
2023-05-10T06:16:50.394Z,6.4431
2023-05-10T06:17:52.585Z,6.8543
2023-05-10T06:18:54.885Z,5.9164
2023-05-10T06:19:57.259Z,6.4886
2023-05-10T06:20:59.619Z,6.0187
2023-05-10T06:22:01.990Z,7.2965
2023-05-10T06:23:04.259Z,5.5141
2023-05-10T06:24:06.604Z,6.2964
2023-05-10T06:25:09.107Z,5.6306
2023-05-10T06:26:11.212Z,6.1387
2023-05-10T06:27:13.633Z,6.5345
2023-05-10T06:28:16.005Z,7.3895
2023-05-10T06:29:18.238Z,6.2595
2023-05-10T06:30:20.561Z,7.2625
2023-05-10T06:31:22.974Z,7.0711
2023-05-10T06:32:25.269Z,6.8678
2023-05-10T06:33:27.540Z,7.1896
2023-05-10T06:34:29.892Z,6.0212
2023-05-10T06:35:32.208Z,6.7901
2023-05-10T06:36:34.569Z,6.5322
2023-05-10T06:37:36.891Z,5.7354
2023-05-10T06:38:39.205Z,6.7775
2023-05-10T06:39:41.543Z,16.4440
2023-05-10T06:40:46.196Z,21.6861
2023-05-10T06:41:47.255Z,18.7068
2023-05-10T06:42:48.563Z,13.6146
2023-05-10T06:43:50.888Z,9.0781
2023-05-10T06:44:53.217Z,8.1006
2023-05-10T06:45:55.587Z,7.3234
2023-05-10T06:46:57.884Z,6.7765
2023-05-10T06:48:00.333Z,7.4610
2023-05-10T06:49:02.551Z,6.0800
2023-05-10T06:50:04.896Z,4.7590
2023-05-10T06:51:07.237Z,4.7394
2023-05-10T06:52:09.561Z,5.2135
2023-05-10T06:53:11.918Z,6.3436
2023-05-10T06:54:14.236Z,5.9900
2023-05-10T06:55:16.711Z,5.0771
2023-05-10T06:56:18.942Z,5.5268
2023-05-10T06:57:31.435Z,6.5024
2023-05-10T06:58:23.574Z,6.4348
2023-05-10T06:59:25.969Z,6.1289
2023-05-10T07:00:28.270Z,7.3229
2023-05-10T07:01:30.667Z,5.6613
2023-05-10T07:02:32.959Z,6.7766
2023-05-10T07:03:35.275Z,6.3050
2023-05-10T07:04:37.625Z,5.4927
2023-05-10T07:05:39.964Z,7.5302
2023-05-10T07:06:42.299Z,6.9875
2023-05-10T07:07:44.609Z,6.2056
2023-05-10T07:08:46.934Z,6.4612
2023-05-10T07:09:49.262Z,5.5490
2023-05-10T07:10:51.616Z,6.3609
2023-05-10T07:11:53.962Z,6.5013
2023-05-10T07:12:56.358Z,7.3977
2023-05-10T07:13:58.595Z,6.8514
2023-05-10T07:15:01.016Z,6.2166
2023-05-10T07:16:03.696Z,6.4114
2023-05-10T07:17:05.686Z,6.1620
2023-05-10T07:18:08.047Z,5.3233
2023-05-10T07:19:10.286Z,5.8958
2023-05-10T07:20:12.591Z,6.2367
2023-05-10T07:21:15.203Z,5.9061
2023-05-10T07:22:17.285Z,6.7352
2023-05-10T07:23:19.795Z,6.1961
2023-05-10T07:24:21.934Z,6.8582
2023-05-10T07:25:24.633Z,5.9252
2023-05-10T07:26:26.602Z,7.0380
2023-05-10T07:27:28.973Z,7.6814
2023-05-10T07:28:31.296Z,5.8008
2023-05-10T07:29:33.602Z,5.9301
2023-05-10T07:30:36.272Z,6.7541
2023-05-10T07:31:38.352Z,6.3256
2023-05-10T07:32:40.759Z,6.3039
2023-05-10T07:33:43.047Z,6.7699
2023-05-10T07:34:45.476Z,6.8136
2023-05-10T07:35:47.608Z,5.9643
2023-05-10T07:36:50.180Z,7.5145
2023-05-10T07:37:52.270Z,6.4354
2023-05-10T07:38:54.723Z,6.6908
2023-05-10T07:39:56.963Z,7.4583
2023-05-10T07:40:59.589Z,7.4220
2023-05-10T07:42:01.616Z,7.2738
2023-05-10T07:43:05.336Z,7.2859
2023-05-10T07:44:06.378Z,7.5436
2023-05-10T07:45:08.605Z,7.6627
2023-05-10T07:46:11.461Z,7.1667
2023-05-10T07:47:13.395Z,7.1434
2023-05-10T07:48:15.740Z,6.8186
2023-05-10T07:49:18.024Z,9.0749
2023-05-10T07:50:20.309Z,9.1801
2023-05-10T07:51:22.670Z,8.1349
2023-05-10T07:52:25.003Z,7.6613
2023-05-10T07:53:27.321Z,7.0513
2023-05-10T07:54:29.675Z,6.9696
2023-05-10T07:55:32.011Z,7.0950
2023-05-10T07:56:34.414Z,7.1855
2023-05-10T07:57:36.704Z,8.7872
2023-05-10T07:58:39.018Z,7.8711
2023-05-10T07:59:41.352Z,9.0772
2023-05-10T08:00:43.678Z,8.3613
2023-05-10T08:01:46.040Z,7.7229
2023-05-10T08:02:48.440Z,7.3398
2023-05-10T08:03:50.749Z,6.8187
2023-05-10T08:04:52.996Z,6.5521
2023-05-10T08:05:55.312Z,7.9926
2023-05-10T08:06:57.659Z,8.2120
2023-05-10T08:08:00.064Z,7.4510
2023-05-10T08:09:02.415Z,7.6627
2023-05-10T08:10:05.410Z,6.6716
2023-05-10T08:11:06.967Z,7.1289
2023-05-10T08:12:09.620Z,7.3258
2023-05-10T08:13:11.676Z,6.7304
2023-05-10T08:14:13.986Z,7.3920
2023-05-10T08:15:16.553Z,6.4629
2023-05-10T08:16:18.730Z,7.6219
2023-05-10T08:17:22.100Z,7.9128
2023-05-10T08:18:23.376Z,7.3737
2023-05-10T08:19:25.633Z,8.5247
2023-05-10T08:20:27.971Z,10.0272
2023-05-10T08:21:30.307Z,8.5519
2023-05-10T08:22:32.640Z,6.9736
2023-05-10T08:23:34.993Z,7.5443
2023-05-10T08:24:37.315Z,6.9349
2023-05-10T08:25:39.638Z,8.1724
2023-05-10T08:26:41.950Z,7.9834
2023-05-10T08:27:44.298Z,8.8461
2023-05-10T08:28:46.632Z,7.5706
2023-05-10T08:29:50.462Z,8.2168
2023-05-10T08:30:51.265Z,7.5332
2023-05-10T08:31:53.688Z,6.8314
2023-05-10T08:32:55.970Z,7.4717
2023-05-10T08:33:58.360Z,7.8966
2023-05-10T08:35:00.608Z,8.1172
2023-05-10T08:36:02.947Z,7.7265
2023-05-10T08:37:05.265Z,9.0078
2023-05-10T08:38:07.588Z,8.3982
2023-05-10T08:39:22.837Z,8.4432
2023-05-10T08:40:12.275Z,9.1134
2023-05-10T08:41:14.585Z,8.9082
2023-05-10T08:42:16.925Z,7.2115
2023-05-10T08:43:19.295Z,8.1801
2023-05-10T08:44:21.642Z,6.0367
2023-05-10T08:45:23.941Z,7.7685
2023-05-10T08:46:26.341Z,7.8109
2023-05-10T08:47:28.624Z,10.0758
2023-05-10T08:48:30.918Z,9.1889
2023-05-10T08:49:33.308Z,9.4277
2023-05-10T08:50:35.595Z,9.6668
2023-05-10T08:51:37.910Z,9.1398
2023-05-10T08:52:40.249Z,7.2919
2023-05-10T08:53:42.573Z,8.4559
2023-05-10T08:54:44.953Z,9.2053
2023-05-10T08:55:47.230Z,8.7925
2023-05-10T08:56:49.982Z,8.0084
2023-05-10T08:57:51.902Z,8.5809
2023-05-10T08:58:54.365Z,9.9152
2023-05-10T08:59:56.652Z,10.1183
2023-05-10T09:00:58.937Z,8.9345
2023-05-10T09:02:01.244Z,8.0936
2023-05-10T09:03:03.633Z,8.4724
2023-05-10T09:04:05.981Z,8.4835
2023-05-10T09:05:08.395Z,8.7989
2023-05-10T09:06:10.756Z,7.5169
2023-05-10T09:07:12.973Z,9.2375
2023-05-10T09:08:15.249Z,7.9166
2023-05-10T09:09:17.555Z,8.3356
2023-05-10T09:10:19.989Z,8.8843
2023-05-10T09:11:22.238Z,8.1080
2023-05-10T09:12:25.774Z,11.1495
2023-05-10T09:13:26.966Z,12.6800
2023-05-10T09:14:29.261Z,11.6308
2023-05-10T09:15:31.571Z,9.8702
2023-05-10T09:16:34.245Z,9.5942
2023-05-10T09:17:36.586Z,8.8234
2023-05-10T09:18:38.688Z,8.2250
2023-05-10T09:19:41.683Z,11.0582
2023-05-10T09:20:43.322Z,10.3853
2023-05-10T09:21:46.024Z,10.9273
2023-05-10T09:22:47.940Z,9.8467
2023-05-10T09:23:50.821Z,9.6001
2023-05-10T09:24:52.674Z,10.1085
2023-05-10T09:25:55.032Z,7.6625
2023-05-10T09:26:57.303Z,8.8422
2023-05-10T09:27:59.567Z,8.6748
2023-05-10T09:29:01.888Z,11.1743
2023-05-10T09:30:04.271Z,10.0120
2023-05-10T09:31:06.728Z,8.9201
2023-05-10T09:32:08.928Z,9.2801
2023-05-10T09:33:12.142Z,9.2129
2023-05-10T09:34:13.640Z,7.7080
2023-05-10T09:35:16.289Z,10.5063
2023-05-10T09:36:18.247Z,10.0727
2023-05-10T09:37:20.595Z,8.4303
2023-05-10T09:38:22.937Z,9.4378
2023-05-10T09:39:25.232Z,9.3180
2023-05-10T09:40:28.572Z,9.3100
2023-05-10T09:41:30.124Z,10.6052
2023-05-10T09:42:32.296Z,10.3237
2023-05-10T09:43:34.636Z,9.9177
2023-05-10T09:44:37.021Z,9.8559
2023-05-10T09:45:39.441Z,9.2499
2023-05-10T09:46:41.806Z,9.7275
2023-05-10T09:47:44.625Z,9.9320
2023-05-10T09:48:46.314Z,8.4604
2023-05-10T09:49:48.875Z,9.5687
2023-05-10T09:50:51.065Z,10.4722
2023-05-10T09:51:53.483Z,10.5362
2023-05-10T09:52:55.825Z,10.0620
2023-05-10T09:53:57.988Z,8.8381
2023-05-10T09:55:00.414Z,8.0671
2023-05-10T09:56:02.827Z,10.5022
2023-05-10T09:57:05.000Z,9.6559
2023-05-10T09:58:07.449Z,9.1356
2023-05-10T09:59:09.678Z,9.3262
2023-05-10T10:00:12.070Z,9.9302
2023-05-10T10:01:14.346Z,10.0706
2023-05-10T10:02:17.973Z,10.3755
2023-05-10T10:03:19.588Z,10.8148
2023-05-10T10:04:21.406Z,8.6354
2023-05-10T10:05:23.922Z,11.6753
2023-05-10T10:06:30.068Z,11.1663
2023-05-10T10:07:28.456Z,10.1470
2023-05-10T10:08:30.823Z,9.9149
2023-05-10T10:09:33.117Z,10.3882
2023-05-10T10:10:35.446Z,10.4238
2023-05-10T10:11:37.692Z,9.2232
2023-05-10T10:12:40.286Z,11.7708
2023-05-10T10:13:42.508Z,10.1414
2023-05-10T10:14:44.848Z,9.6736
2023-05-10T10:15:47.899Z,10.0232
2023-05-10T10:17:05.873Z,9.1953
2023-05-10T10:17:51.793Z,10.8247
2023-05-10T10:18:54.107Z,9.2190
2023-05-10T10:19:56.434Z,9.5225
2023-05-10T10:20:58.722Z,10.7123
2023-05-10T10:22:01.459Z,9.8602
2023-05-10T10:23:03.399Z,10.0314
2023-05-10T10:24:05.804Z,8.8179
2023-05-10T10:25:08.089Z,7.9319
2023-05-10T10:26:10.429Z,9.2568
2023-05-10T10:27:12.759Z,7.7169
2023-05-10T10:28:15.151Z,8.5972
2023-05-10T10:29:17.438Z,8.7840
2023-05-10T10:30:19.840Z,11.1751
2023-05-10T10:31:22.337Z,10.1558
2023-05-10T10:32:24.583Z,12.1403
2023-05-10T10:33:28.772Z,10.5054
2023-05-10T10:34:29.194Z,10.7436
2023-05-10T10:35:31.659Z,11.2907
2023-05-10T10:36:33.913Z,12.7326
2023-05-10T10:37:36.311Z,11.1541
2023-05-10T10:38:38.555Z,10.7653
2023-05-10T10:39:40.850Z,11.3694
2023-05-10T10:40:43.178Z,11.2428
2023-05-10T10:41:45.686Z,10.2579
2023-05-10T10:42:48.189Z,10.5707
2023-05-10T10:43:50.777Z,10.1696
2023-05-10T10:44:53.358Z,8.9669
2023-05-10T10:45:54.893Z,9.0525
2023-05-10T10:46:57.330Z,9.9651
2023-05-10T10:48:00.273Z,10.4876
2023-05-10T10:49:01.906Z,10.4221
2023-05-10T10:50:04.233Z,9.5937
2023-05-10T10:51:07.217Z,9.7688
2023-05-10T10:52:08.905Z,9.2380
2023-05-10T10:53:11.342Z,8.8133
2023-05-10T10:54:13.594Z,9.3224
2023-05-10T10:55:16.397Z,8.4452
2023-05-10T10:56:18.263Z,8.6924
2023-05-10T10:57:21.157Z,9.7311
2023-05-10T10:58:22.975Z,8.6590
2023-05-10T10:59:25.308Z,10.2780
2023-05-10T11:00:27.715Z,9.8610
2023-05-10T11:01:29.968Z,9.8307
2023-05-10T11:02:32.653Z,10.5884
2023-05-10T11:03:35.080Z,9.0443
2023-05-10T11:04:37.064Z,8.7454
2023-05-10T11:05:40.109Z,10.0661
2023-05-10T11:06:41.663Z,9.8822
2023-05-10T11:07:44.643Z,10.7735
2023-05-10T11:08:46.340Z,11.0004
2023-05-10T11:09:48.697Z,9.4802
2023-05-10T11:10:51.001Z,9.0866
2023-05-10T11:11:53.596Z,8.8321
2023-05-10T11:12:55.677Z,10.3845
2023-05-10T11:13:58.497Z,8.9071
2023-05-10T11:15:00.352Z,9.9432
2023-05-10T11:16:03.008Z,8.4241
2023-05-10T11:17:05.457Z,8.7754
2023-05-10T11:18:07.764Z,9.6615
2023-05-10T11:19:10.070Z,11.6805
2023-05-10T11:20:12.733Z,8.5598
2023-05-10T11:21:14.366Z,8.9652
2023-05-10T11:22:16.685Z,10.1348
2023-05-10T11:23:19.073Z,10.3652
2023-05-10T11:24:21.449Z,9.1622
2023-05-10T11:25:25.021Z,8.9252
2023-05-10T11:26:27.240Z,10.5181
2023-05-10T11:27:29.030Z,9.5130
2023-05-10T11:28:31.667Z,10.8695
2023-05-10T11:29:33.108Z,9.6245
2023-05-10T11:30:35.420Z,10.4955
2023-05-10T11:31:37.712Z,11.4031
2023-05-10T11:32:40.291Z,10.9737
2023-05-10T11:33:43.524Z,10.3438
2023-05-10T11:34:44.921Z,9.8210
2023-05-10T11:35:47.057Z,10.8609
2023-05-10T11:36:50.036Z,12.0067
2023-05-10T11:37:51.712Z,10.0150
2023-05-10T11:38:54.065Z,10.0853
2023-05-10T11:39:57.582Z,10.7024
2023-05-10T11:40:59.185Z,12.3165
2023-05-10T11:42:01.259Z,10.5750
2023-05-10T11:43:04.096Z,10.5153
2023-05-10T11:44:05.885Z,10.9333
2023-05-10T11:45:08.094Z,9.3711
2023-05-10T11:46:10.600Z,11.0916
2023-05-10T11:47:13.132Z,8.9332
2023-05-10T11:48:15.183Z,11.0520
2023-05-10T11:49:17.436Z,10.9145
2023-05-10T11:50:19.982Z,9.5445
2023-05-10T11:51:22.080Z,7.6525
2023-05-10T11:52:24.973Z,8.5120
2023-05-10T11:53:26.863Z,11.2895
2023-05-10T11:54:30.141Z,9.4912
2023-05-10T11:55:31.457Z,10.4601
2023-05-10T11:56:34.506Z,9.0856
2023-05-10T11:57:36.101Z,7.4898
2023-05-10T11:58:39.183Z,8.9842
2023-05-10T11:59:43.075Z,10.0001
2023-05-10T12:00:43.440Z,11.7011
2023-05-10T12:01:45.457Z,10.2610
2023-05-10T12:02:47.940Z,9.5113
2023-05-10T12:03:50.654Z,8.8135
2023-05-10T12:04:53.145Z,9.8216
2023-05-10T12:05:55.474Z,10.4047
2023-05-10T12:06:57.293Z,9.6513
2023-05-10T12:07:59.479Z,9.3508
2023-05-10T12:09:01.853Z,12.5158
2023-05-10T12:10:04.178Z,9.5522
2023-05-10T12:11:06.557Z,10.1859
2023-05-10T12:12:09.374Z,11.5596
2023-05-10T12:13:11.185Z,9.7779
2023-05-10T12:14:13.531Z,10.4028
2023-05-10T12:15:15.870Z,10.7324
2023-05-10T12:16:18.271Z,11.8416
2023-05-10T12:17:20.531Z,10.5482
2023-05-10T12:18:22.969Z,10.7803
2023-05-10T12:19:25.210Z,11.5814
2023-05-10T12:20:27.572Z,9.8593
2023-05-10T12:21:29.905Z,10.7558
2023-05-10T12:22:32.271Z,11.7705
2023-05-10T12:23:34.659Z,10.8862
2023-05-10T12:24:36.917Z,10.2541
2023-05-10T12:25:39.731Z,10.2314
2023-05-10T12:26:41.954Z,11.7308
2023-05-10T12:27:43.963Z,11.4398
2023-05-10T12:28:46.237Z,10.5189
2023-05-10T12:29:48.572Z,11.9008
2023-05-10T12:30:51.035Z,12.0982
2023-05-10T12:31:53.356Z,11.3453
2023-05-10T12:32:55.726Z,10.3606
2023-05-10T12:33:57.923Z,11.6437
2023-05-10T12:35:00.761Z,9.7414
2023-05-10T12:36:02.589Z,12.2310
2023-05-10T12:37:05.087Z,11.1975
2023-05-10T12:38:07.374Z,11.2139
2023-05-10T12:39:09.686Z,12.5936
2023-05-10T12:40:11.978Z,12.0585
2023-05-10T12:41:14.340Z,12.3889
2023-05-10T12:42:16.942Z,12.5865
2023-05-10T12:43:19.168Z,13.9908
2023-05-10T12:44:21.291Z,12.1873
2023-05-10T12:45:23.746Z,12.4508
2023-05-10T12:46:26.011Z,11.4786
2023-05-10T12:47:28.402Z,11.9703
2023-05-10T12:48:30.623Z,11.8361
2023-05-10T12:49:33.556Z,12.6085
2023-05-10T12:50:35.344Z,11.8038
2023-05-10T12:51:38.331Z,11.1339
2023-05-10T12:52:40.169Z,12.3425
2023-05-10T12:53:44.583Z,11.9564